Terminal Aerodrome Forecast
Issued by NWS Charleston, WV

Current Version | Previous Version | Text Only | Print | Product List | Glossary Off
Versions: 1 2 3 4 5 6 7 8 9 10 11 12 13 14 15 16 17 18 19 20 21

000
FTUS41 KRLX 082300
TAFPKB
TAF
KPKB 082324Z 0900/0924 25011G16KT P6SM SCT045
     FM090300 24007KT P6SM SCT045
     FM090500 23006KT 6SM BR SCT045
     FM090800 23005KT 5SM BR SCT045
     FM091400 24009KT P6SM SCT045
     FM092300 28007KT P6SM SCT045=

USA.gov is the U.S. government's official web portal to all federal, state and local government web resources and services.